sensor_id;sensor_type;location;lat;lon;timestamp;pressure;altitude;pressure_sealevel;temperature;humidity
71057;BME280;58380;48.312;9.246;2023-08-01T15:36:31;92676.09;;;18.14;65.44
71057;BME280;58380;48.312;9.246;2023-08-01T15:38:57;92683.06;;;18.06;66.16
71057;BME280;58380;48.312;9.246;2023-08-01T15:41:26;92684.00;;;18.10;65.98
71057;BME280;58380;48.312;9.246;2023-08-01T15:43:52;92688.41;;;18.06;65.71
71057;BME280;58380;48.312;9.246;2023-08-01T15:46:18;92690.63;;;18.04;64.46
71057;BME280;58380;48.312;9.246;2023-08-01T15:48:44;92688.41;;;18.06;64.76
71057;BME280;58380;48.312;9.246;2023-08-01T15:51:09;92670.84;;;17.84;64.00
71057;BME280;58380;48.312;9.246;2023-08-01T15:53:36;92721.22;;;18.07;64.35
71057;BME280;58380;48.312;9.246;2023-08-01T15:56:03;92710.41;;;18.45;63.16
71057;BME280;58380;48.312;9.246;2023-08-01T15:58:30;92695.19;;;18.58;63.17
71057;BME280;58380;48.312;9.246;2023-08-01T16:00:57;92676.31;;;18.75;62.63
71057;BME280;58380;48.312;9.246;2023-08-01T16:03:23;92692.94;;;19.06;63.26
71057;BME280;58380;48.312;9.246;2023-08-01T16:05:49;92705.56;;;19.30;60.19
71057;BME280;58380;48.312;9.246;2023-08-01T16:08:19;92705.22;;;19.19;61.30
71057;BME280;58380;48.312;9.246;2023-08-01T16:10:45;92697.84;;;19.04;60.37
71057;BME280;58380;48.312;9.246;2023-08-01T16:13:11;92689.56;;;18.84;59.50
71057;BME280;58380;48.312;9.246;2023-08-01T16:15:38;92704.75;;;18.92;61.66
71057;BME280;58380;48.312;9.246;2023-08-01T16:18:04;92703.97;;;18.80;60.50
71057;BME280;58380;48.312;9.246;2023-08-01T16:20:30;92710.19;;;18.84;62.67
71057;BME280;58380;48.312;9.246;2023-08-01T16:22:56;92697.44;;;18.68;62.27
71057;BME280;58380;48.312;9.246;2023-08-01T16:25:22;92696.16;;;18.53;62.65
71057;BME280;58380;48.312;9.246;2023-08-01T16:27:47;92711.06;;;18.54;63.39
71057;BME280;58380;48.312;9.246;2023-08-01T16:30:13;92711.28;;;18.49;62.22
71057;BME280;58380;48.312;9.246;2023-08-01T16:32:39;92697.44;;;18.35;62.73
71057;BME280;58380;48.312;9.246;2023-08-01T16:35:04;92704.38;;;18.48;61.81
71057;BME280;58380;48.312;9.246;2023-08-01T16:37:30;92704.44;;;18.27;62.99
71057;BME280;58380;48.312;9.246;2023-08-01T16:39:56;92713.22;;;18.28;62.09
71057;BME280;58380;48.312;9.246;2023-08-01T16:42:21;92718.88;;;18.26;61.69
71057;BME280;58380;48.312;9.246;2023-08-01T16:44:47;92708.22;;;18.05;62.86
71057;BME280;58380;48.312;9.246;2023-08-01T16:47:13;92715.72;;;17.91;61.94
71057;BME280;58380;48.312;9.246;2023-08-01T16:49:39;92683.56;;;17.58;64.10
71057;BME280;58380;48.312;9.246;2023-08-01T16:52:05;92710.53;;;17.65;64.06
71057;BME280;58380;48.312;9.246;2023-08-01T16:54:31;92694.28;;;17.49;64.63
71057;BME280;58380;48.312;9.246;2023-08-01T16:56:56;92723.22;;;17.68;68.02
71057;BME280;58380;48.312;9.246;2023-08-01T16:59:22;92728.59;;;17.59;65.11
71057;BME280;58380;48.312;9.246;2023-08-01T17:01:47;92729.41;;;17.60;65.80
71057;BME280;58380;48.312;9.246;2023-08-01T17:04:13;92728.47;;;17.56;67.23
71057;BME280;58380;48.312;9.246;2023-08-01T17:06:39;92730.38;;;17.55;66.79
71057;BME280;58380;48.312;9.246;2023-08-01T17:09:04;92728.31;;;17.52;66.61
71057;BME280;58380;48.312;9.246;2023-08-01T17:11:33;92709.88;;;17.38;67.82
71057;BME280;58380;48.312;9.246;2023-08-01T17:13:59;92737.63;;;17.46;66.75
71057;BME280;58380;48.312;9.246;2023-08-01T17:16:26;92750.19;;;17.45;66.52
71057;BME280;58380;48.312;9.246;2023-08-01T17:18:51;92744.88;;;17.37;66.56
71057;BME280;58380;48.312;9.246;2023-08-01T17:21:17;92756.47;;;17.41;66.71
71057;BME280;58380;48.312;9.246;2023-08-01T17:23:45;92739.78;;;17.23;69.25
71057;BME280;58380;48.312;9.246;2023-08-01T17:26:11;92736.66;;;17.12;67.40
71057;BME280;58380;48.312;9.246;2023-08-01T17:28:36;92741.25;;;17.03;67.94
71057;BME280;58380;48.312;9.246;2023-08-01T17:31:04;92729.06;;;16.93;69.56
71057;BME280;58380;48.312;9.246;2023-08-01T17:33:31;92747.41;;;16.95;69.18
71057;BME280;58380;48.312;9.246;2023-08-01T17:35:57;92772.66;;;16.97;68.82
71057;BME280;58380;48.312;9.246;2023-08-01T17:38:22;92756.19;;;16.87;70.77
71057;BME280;58380;48.312;9.246;2023-08-01T17:40:47;92768.63;;;16.83;69.40
71057;BME280;58380;48.312;9.246;2023-08-01T17:43:14;92746.53;;;16.56;70.87
71057;BME280;58380;48.312;9.246;2023-08-01T17:45:39;92774.56;;;16.71;70.67
71057;BME280;58380;48.312;9.246;2023-08-01T17:48:05;92777.22;;;16.62;72.66
71057;BME280;58380;48.312;9.246;2023-08-01T17:50:30;92733.84;;;16.27;71.24
71057;BME280;58380;48.312;9.246;2023-08-01T17:52:56;92746.84;;;16.37;72.40
71057;BME280;58380;48.312;9.246;2023-08-01T17:55:21;92784.13;;;16.54;72.37
71057;BME280;58380;48.312;9.246;2023-08-01T17:57:46;92799.81;;;16.56;72.88
71057;BME280;58380;48.312;9.246;2023-08-01T18:00:12;92760.31;;;16.32;72.45
71057;BME280;58380;48.312;9.246;2023-08-01T18:02:38;92757.06;;;16.17;71.22
71057;BME280;58380;48.312;9.246;2023-08-01T18:05:04;92761.91;;;16.24;73.60
71057;BME280;58380;48.312;9.246;2023-08-01T18:07:30;92800.13;;;16.46;72.18
71057;BME280;58380;48.312;9.246;2023-08-01T18:09:59;92800.75;;;16.34;71.14
71057;BME280;58380;48.312;9.246;2023-08-01T18:12:25;92803.88;;;16.36;72.31
71057;BME280;58380;48.312;9.246;2023-08-01T18:14:50;92797.47;;;16.28;70.28
71057;BME280;58380;48.312;9.246;2023-08-01T18:17:16;92804.34;;;16.29;70.32
71057;BME280;58380;48.312;9.246;2023-08-01T18:19:42;92813.91;;;16.30;69.79
71057;BME280;58380;48.312;9.246;2023-08-01T18:22:09;92812.19;;;16.26;70.66
71057;BME280;58380;48.312;9.246;2023-08-01T18:24:34;92805.13;;;16.21;70.23
71057;BME280;58380;48.312;9.246;2023-08-01T18:27:00;92808.25;;;16.14;70.95
71057;BME280;58380;48.312;9.246;2023-08-01T18:29:25;92816.88;;;16.20;71.17
71057;BME280;58380;48.312;9.246;2023-08-01T18:31:51;92812.16;;;16.00;71.20
71057;BME280;58380;48.312;9.246;2023-08-01T18:34:16;92801.78;;;15.89;71.69
71057;BME280;58380;48.312;9.246;2023-08-01T18:36:41;92829.06;;;16.04;73.71
71057;BME280;58380;48.312;9.246;2023-08-01T18:39:07;92769.78;;;15.63;72.16
71057;BME280;58380;48.312;9.246;2023-08-01T18:41:32;92816.03;;;15.76;72.14
71057;BME280;58380;48.312;9.246;2023-08-01T18:43:59;92824.00;;;15.85;71.71
71057;BME280;58380;48.312;9.246;2023-08-01T18:46:25;92837.78;;;15.87;71.33
71057;BME280;58380;48.312;9.246;2023-08-01T18:48:50;92783.38;;;15.53;74.70
71057;BME280;58380;48.312;9.246;2023-08-01T18:51:20;92839.81;;;15.81;71.81
71057;BME280;58380;48.312;9.246;2023-08-01T18:53:46;92802.78;;;15.53;72.49
71057;BME280;58380;48.312;9.246;2023-08-01T18:56:14;92832.63;;;15.73;72.86
71057;BME280;58380;48.312;9.246;2023-08-01T18:58:46;92845.22;;;15.67;74.25
71057;BME280;58380;48.312;9.246;2023-08-01T19:01:14;92817.13;;;15.35;72.12
71057;BME280;58380;48.312;9.246;2023-08-01T19:03:46;92840.50;;;15.56;75.52
71057;BME280;58380;48.312;9.246;2023-08-01T19:06:16;92852.06;;;15.51;76.72
71057;BME280;58380;48.312;9.246;2023-08-01T19:08:45;92838.97;;;15.32;79.13
71057;BME280;58380;48.312;9.246;2023-08-01T19:11:12;92861.00;;;15.24;75.73
71057;BME280;58380;48.312;9.246;2023-08-01T19:13:38;92878.09;;;15.31;76.04
71057;BME280;58380;48.312;9.246;2023-08-01T19:16:03;92849.78;;;15.04;74.94
71057;BME280;58380;48.312;9.246;2023-08-01T19:18:29;92874.16;;;15.29;74.61
71057;BME280;58380;48.312;9.246;2023-08-01T19:20:57;92881.31;;;15.20;75.34
71057;BME280;58380;48.312;9.246;2023-08-01T19:23:24;92890.22;;;15.15;74.16
71057;BME280;58380;48.312;9.246;2023-08-01T19:25:49;92878.31;;;15.13;72.74
71057;BME280;58380;48.312;9.246;2023-08-01T19:28:15;92895.41;;;15.20;73.97
71057;BME280;58380;48.312;9.246;2023-08-01T19:30:42;92898.47;;;15.14;72.98
71057;BME280;58380;48.312;9.246;2023-08-01T19:33:08;92887.31;;;15.03;73.00
71057;BME280;58380;48.312;9.246;2023-08-01T19:35:39;92900.28;;;15.04;73.90
71057;BME280;58380;48.312;9.246;2023-08-01T19:38:06;92875.41;;;15.00;73.12
71057;BME280;58380;48.312;9.246;2023-08-01T19:40:38;92880.25;;;14.98;73.67
71057;BME280;58380;48.312;9.246;2023-08-01T19:43:06;92883.19;;;14.97;73.01
71057;BME280;58380;48.312;9.246;2023-08-01T19:45:32;92906.22;;;15.01;74.04
71057;BME280;58380;48.312;9.246;2023-08-01T19:47:58;92893.28;;;14.86;74.05
71057;BME280;58380;48.312;9.246;2023-08-01T19:50:23;92890.81;;;14.89;74.64
71057;BME280;58380;48.312;9.246;2023-08-01T19:52:50;92904.53;;;14.83;75.37
71057;BME280;58380;48.312;9.246;2023-08-01T19:55:16;92929.41;;;14.87;77.13
71057;BME280;58380;48.312;9.246;2023-08-01T19:57:41;92920.50;;;14.69;78.17
71057;BME280;58380;48.312;9.246;2023-08-01T20:00:07;92923.78;;;14.66;79.81
71057;BME280;58380;48.312;9.246;2023-08-01T20:02:33;92945.88;;;14.75;80.71
71057;BME280;58380;48.312;9.246;2023-08-01T20:05:05;92953.00;;;14.66;80.09
71057;BME280;58380;48.312;9.246;2023-08-01T20:07:31;92951.72;;;14.63;85.17
71057;BME280;58380;48.312;9.246;2023-08-01T20:09:57;92930.47;;;14.50;86.07
71057;BME280;58380;48.312;9.246;2023-08-01T20:12:23;92931.78;;;14.38;81.15
71057;BME280;58380;48.312;9.246;2023-08-01T20:14:48;92955.25;;;14.45;85.30
71057;BME280;58380;48.312;9.246;2023-08-01T20:17:15;92957.31;;;14.48;84.74
71057;BME280;58380;48.312;9.246;2023-08-01T20:19:43;92945.25;;;14.28;82.66
71057;BME280;58380;48.312;9.246;2023-08-01T20:22:10;92954.50;;;14.31;81.21
71057;BME280;58380;48.312;9.246;2023-08-01T20:24:35;92952.13;;;14.29;83.25
71057;BME280;58380;48.312;9.246;2023-08-01T20:27:02;92928.06;;;14.12;84.37
71057;BME280;58380;48.312;9.246;2023-08-01T20:29:29;92906.06;;;13.97;85.32
71057;BME280;58380;48.312;9.246;2023-08-01T20:31:54;92955.19;;;14.22;85.39
71057;BME280;58380;48.312;9.246;2023-08-01T20:34:20;92954.13;;;14.23;86.77
71057;BME280;58380;48.312;9.246;2023-08-01T20:36:45;92926.31;;;13.93;87.91
71057;BME280;58380;48.312;9.246;2023-08-01T20:39:11;92947.41;;;14.12;87.73
71057;BME280;58380;48.312;9.246;2023-08-01T20:41:36;92962.66;;;14.07;85.87
71057;BME280;58380;48.312;9.246;2023-08-01T20:44:02;92951.66;;;13.86;87.05
71057;BME280;58380;48.312;9.246;2023-08-01T20:46:27;92968.34;;;14.00;90.84
71057;BME280;58380;48.312;9.246;2023-08-01T20:48:56;92962.97;;;13.91;86.48
71057;BME280;58380;48.312;9.246;2023-08-01T20:51:21;92968.44;;;13.95;91.27
71057;BME280;58380;48.312;9.246;2023-08-01T20:53:47;92944.78;;;13.71;91.99
71057;BME280;58380;48.312;9.246;2023-08-01T20:56:12;92961.66;;;13.75;89.42
71057;BME280;58380;48.312;9.246;2023-08-01T20:58:38;92976.50;;;13.76;93.65
71057;BME280;58380;48.312;9.246;2023-08-01T21:01:03;92978.94;;;13.72;91.64
71057;BME280;58380;48.312;9.246;2023-08-01T21:03:29;92975.50;;;13.72;95.20
71057;BME280;58380;48.312;9.246;2023-08-01T21:05:54;92984.25;;;13.72;93.60
71057;BME280;58380;48.312;9.246;2023-08-01T21:08:20;92968.03;;;13.60;95.62
71057;BME280;58380;48.312;9.246;2023-08-01T21:10:46;92960.97;;;13.55;95.91
71057;BME280;58380;48.312;9.246;2023-08-01T21:13:11;92978.16;;;13.58;94.84
71057;BME280;58380;48.312;9.246;2023-08-01T21:15:37;92992.47;;;13.57;94.51
71057;BME280;58380;48.312;9.246;2023-08-01T21:18:02;92984.31;;;13.53;97.96
71057;BME280;58380;48.312;9.246;2023-08-01T21:20:27;92972.41;;;13.37;98.61
71057;BME280;58380;48.312;9.246;2023-08-01T21:22:53;92962.53;;;13.24;99.01
71057;BME280;58380;48.312;9.246;2023-08-01T21:25:18;92954.50;;;13.10;99.00
71057;BME280;58380;48.312;9.246;2023-08-01T21:27:44;92984.44;;;13.29;100.00
71057;BME280;58380;48.312;9.246;2023-08-01T21:30:09;92946.22;;;12.98;100.00
71057;BME280;58380;48.312;9.246;2023-08-01T21:32:35;92923.41;;;12.83;100.00
71057;BME280;58380;48.312;9.246;2023-08-01T21:35:01;92937.06;;;12.90;100.00
71057;BME280;58380;48.312;9.246;2023-08-01T21:37:26;92982.38;;;13.07;99.65
71057;BME280;58380;48.312;9.246;2023-08-01T21:39:52;92981.09;;;13.05;94.94
71057;BME280;58380;48.312;9.246;2023-08-01T21:42:17;92965.16;;;12.91;95.88
71057;BME280;58380;48.312;9.246;2023-08-01T21:44:42;92917.78;;;12.51;95.06
